Map

Track Data

SID SEASON NUMBER BASIN SUBBASIN NAME ISO_TIME NATURE LAT LON WMO_WIND WMO_PRES WMO_AGENCY TRACK_TYPE DIST2LAND LANDFALL IFLAG USA_AGENCY USA_ATCF_ID USA_LAT USA_LON USA_RECORD USA_STATUS USA_WIND USA_PRES USA_SSHS USA_R34_NE USA_R34_SE USA_R34_SW USA_R34_NW USA_R50_NE USA_R50_SE USA_R50_SW USA_R50_NW USA_R64_NE USA_R64_SE USA_R64_SW USA_R64_NW USA_POCI USA_ROCI USA_RMW USA_EYE TOKYO_LAT TOKYO_LON TOKYO_GRADE TOKYO_WIND TOKYO_PRES TOKYO_R50_DIR TOKYO_R50_LONG TOKYO_R50_SHORT TOKYO_R30_DIR TOKYO_R30_LONG TOKYO_R30_SHORT TOKYO_LAND CMA_LAT CMA_LON CMA_CAT CMA_WIND CMA_PRES HKO_LAT HKO_LON HKO_CAT HKO_WIND HKO_PRES NEWDELHI_LAT NEWDELHI_LON NEWDELHI_GRADE NEWDELHI_WIND NEWDELHI_PRES NEWDELHI_CI NEWDELHI_DP NEWDELHI_POCI REUNION_LAT REUNION_LON REUNION_TYPE REUNION_WIND REUNION_PRES REUNION_TNUM REUNION_CI REUNION_RMW REUNION_R34_NE REUNION_R34_SE REUNION_R34_SW REUNION_R34_NW REUNION_R50_NE REUNION_R50_SE REUNION_R50_SW REUNION_R50_NW REUNION_R64_NE REUNION_R64_SE REUNION_R64_SW REUNION_R64_NW BOM_LAT BOM_LON BOM_TYPE BOM_WIND BOM_PRES BOM_TNUM BOM_CI BOM_RMW BOM_R34_NE BOM_R34_SE BOM_R34_SW BOM_R34_NW BOM_R50_NE BOM_R50_SE BOM_R50_SW BOM_R50_NW BOM_R64_NE BOM_R64_SE BOM_R64_SW BOM_R64_NW BOM_ROCI BOM_POCI BOM_EYE BOM_POS_METHOD BOM_PRES_METHOD NADI_LAT NADI_LON NADI_CAT NADI_WIND NADI_PRES WELLINGTON_LAT WELLINGTON_LON WELLINGTON_WIND WELLINGTON_PRES DS824_LAT DS824_LON DS824_STAGE DS824_WIND DS824_PRES TD9636_LAT TD9636_LON TD9636_STAGE TD9636_WIND TD9636_PRES TD9635_LAT TD9635_LON TD9635_WIND TD9635_PRES TD9635_ROCI NEUMANN_LAT NEUMANN_LON NEUMANN_CLASS NEUMANN_WIND NEUMANN_PRES MLC_LAT MLC_LON MLC_CLASS MLC_WIND MLC_PRES USA_GUST BOM_GUST BOM_GUST_PER REUNION_GUST REUNION_GUST_PER USA_SEAHGT USA_SEARAD_NE USA_SEARAD_SE USA_SEARAD_SW USA_SEARAD_NW STORM_SPEED STORM_DIR
1986061S13124 1986 30 SI WA VICTOR 1986-03-02 09:00:00 NR -13.2000 124.200 25 999 bom main 190 154 ______O___O___ -1 -13.2000 124.200 20 25 999 2.00000 238 6 -13.2000 124.200 1 32 7 124
1986061S13124 1986 30 SI WA VICTOR 1986-03-02 12:00:00 TS -13.4000 124.500 25 998 bom main 154 144 O_____V___O_O_ jtwc_sh SH221986 -13.6000 124.700 25 -1 -13.3000 124.400 20 25 998 2.00000 247 6 -13.3000 124.400 2 34 -13.6000 124.700 TC 25 3 147
1986061S13124 1986 30 SI WA VICTOR 1986-03-02 15:00:00 TS -13.4834 124.390 main 150 150 P_____P___P_P_ SH221986 -13.6400 124.467 25 -1 -13.3667 124.307 20 28 998 256 -13.3915 124.371 2 35 -13.6400 124.467 TC 25 3 238
1986061S13124 1986 30 SI WA VICTOR 1986-03-02 16:00:00 TS -13.5161 124.311 30 998 bom main 156 155 P_____O___P_P_ SH221986 -13.6568 124.384 25 -1 -13.4000 124.200 20 30 998 2.50000 259 6 -13.4211 124.312 2 35 -13.6568 124.384 TC 25 6 248
1986061S13124 1986 30 SI WA VICTOR 1986-03-02 18:00:00 TS -13.5954 124.109 30 996 bom main 163 163 O_____O___P_O_ jtwc_sh SH221986 -13.7000 124.200 25 -1 -13.5000 123.900 20 30 996 2.50000 265 6 -13.4815 124.138 2 37 -13.7000 124.200 TC 25 7 251
1986061S13124 1986 30 SI WA VICTOR 1986-03-02 21:00:00 TS -13.6914 123.782 35 994 bom main 181 181 P_____O___P_P_ SH221986 -13.7925 123.873 27 -1 -13.6000 123.600 30 35 994 3.00000 292 6 -13.5807 123.785 2 38 -13.7925 123.873 TC 27 7 252
1986061S13124 1986 30 SI WA VICTOR 1986-03-03 00:00:00 TS -13.8000 123.450 35 994 bom main 204 204 O_____O___O_O_ jtwc_sh SH221986 -13.9000 123.500 30 -1 -13.7000 123.400 30 35 994 3.00000 193 6 -13.7000 123.400 2 40 -13.9000 123.500 TC 30 7 248
1986061S13124 1986 30 SI WA VICTOR 1986-03-03 03:00:00 TS -13.9413 123.143 40 992 bom main 233 227 P_____O___P_P_ SH221986 -13.9999 123.115 30 -1 -13.9000 123.200 30 40 992 3.00000 238 6 -13.8653 123.143 2 43 -13.9999 123.115 TC 30 7 247
1986061S13124 1986 30 SI WA VICTOR 1986-03-03 06:00:00 TS -14.0874 122.767 40 990 bom main 240 240 O_____O___P_O_ jtwc_sh SH221986 -14.1000 122.700 30 -1 -14.1000 122.800 30 40 990 3.00000 220 6 -14.0495 122.868 2 46 -14.1000 122.700 TC 30 8 249
1986061S13124 1986 30 SI WA VICTOR 1986-03-03 09:00:00 TS -14.2298 122.386 40 990 bom main 262 254 P_____O___P_P_ SH221986 -14.1925 122.242 32 -1 -14.3000 122.500 30 40 990 3.00000 215 6 -14.2339 122.558 2 49 -14.1925 122.242 TC 32 8 251
1986061S13124 1986 30 SI WA VICTOR 1986-03-03 12:00:00 TS -14.3500 122.000 50 986 bom main 264 254 O_____V___O_O_ jtwc_sh SH221986 -14.3000 121.800 35 0 -14.4000 122.200 30 50 986 3.50000 286 6 -14.4000 122.200 2 52 -14.3000 121.800 TC 35 8 253
1986061S13124 1986 30 SI WA VICTOR 1986-03-03 15:00:00 TS -14.4544 121.605 main 263 263 P_____P___P_P_ SH221986 -14.4348 121.442 37 0 -14.4667 121.758 30 50 986 358 -14.4810 121.778 2 55 -14.4348 121.442 TC 37 8 254
1986061S13124 1986 30 SI WA VICTOR 1986-03-03 16:00:00 TS -14.4940 121.472 50 986 bom main 269 269 P_____O___P_P_ SH221986 -14.4865 121.330 38 0 -14.5000 121.600 30 50 986 3.50000 382 6 -14.5028 121.626 2 56 -14.4865 121.330 TC 38 8 251
1986061S13124 1986 30 SI WA VICTOR 1986-03-03 18:00:00 TS -14.5869 121.202 50 984 bom main 280 280 O_____O___P_O_ jtwc_sh SH221986 -14.6000 121.100 40 0 -14.6000 121.300 30 50 984 3.50000 274 6 -14.5476 121.309 2 59 -14.6000 121.100 TC 40 9 252
1986061S13124 1986 30 SI WA VICTOR 1986-03-03 21:00:00 TS -14.7313 120.735 55 980 bom main 309 301 P_____O___P_P_ SH221986 -14.7924 120.715 42 0 -14.7000 120.700 30 55 980 4.00000 280 6 -14.6403 120.810 2 62 -14.7924 120.715 TC 42 9 250
1986061S13124 1986 30 SI WA VICTOR 1986-03-04 00:00:00 TS -14.9000 120.300 60 976 bom main 324 324 O_____O___O_O_ jtwc_sh SH221986 -15.0000 120.300 45 0 -14.8000 120.300 30 60 976 4.00000 367 6 -14.8000 120.300 4 66 -15.0000 120.300 TC 45 9 245
1986061S13124 1986 30 SI WA VICTOR 1986-03-04 03:00:00 TS -15.1359 119.848 main 348 341 P_____P___P_P_ SH221986 -15.1999 119.865 50 0 -15.0453 119.874 30 65 970 361 -15.0985 119.788 4 72 -15.1999 119.865 TC 50 10 240
1986061S13124 1986 30 SI WA VICTOR 1986-03-04 06:00:00 TS -15.4157 119.368 70 965 bom main 363 363 O_____O___P_O_ jtwc_sh SH221986 -15.4000 119.400 55 0 -15.4000 119.400 40 70 965 4.50000 355 6 -15.4626 119.271 4 78 -15.4000 119.400 TC 55 11 239
1986061S13124 1986 30 SI WA VICTOR 1986-03-04 09:00:00 TS -15.7133 118.849 main 404 399 P_____P___P_P_ SH221986 -15.5925 118.892 62 0 -15.8226 118.843 40 75 960 278 -15.8454 118.769 4 84 -15.5925 118.892 TC 62 11 239
1986061S13124 1986 30 SI WA VICTOR 1986-03-04 12:00:00 TS -16.0000 118.350 80 955 bom main 430 430 O_____V___O_O_ jtwc_sh SH221986 -15.8000 118.400 70 1 -16.2000 118.300 40 80 955 5.00000 202 6 -16.2000 118.300 4 90 -15.8000 118.400 TC 70 10 240
1986061S13124 1986 30 SI WA VICTOR 1986-03-04 15:00:00 TS -16.2217 117.930 main 454 439 P_____P___P_P_ SH221986 -16.0348 117.985 75 1 -16.3648 117.870 40 82 952 125 -16.4523 117.880 4 94 -16.0348 117.985 TC 75 9 240
1986061S13124 1986 30 SI WA VICTOR 1986-03-04 18:00:00 TS -16.4430 117.549 85 950 bom main 447 424 O_____O___P_O_ jtwc_sh SH221986 -16.3000 117.600 80 1 -16.5000 117.500 40 85 950 5.00000 49 6 -16.6719 117.496 4 98 -16.3000 117.600 TC 80 9 236
1986061S13124 1986 30 SI WA VICTOR 1986-03-04 21:00:00 TS -16.7182 117.163 main 424 400 P_____P___P_P_ SH221986 -16.6000 117.193 85 2 -16.7925 117.128 40 87 945 235 -16.8806 117.140 4 102 -16.6000 117.193 TC 85 9 232
1986061S13124 1986 30 SI WA VICTOR 1986-03-05 00:00:00 TS -17.0000 116.800 90 940 bom main 402 380 O_____O___O_O_ jtwc_sh SH221986 -16.9000 116.800 90 2 -17.1000 116.800 40 90 940 5.50000 421 1 6 -17.1000 116.800 4 106 -16.9000 116.800 TC 90 9 231
1986061S13124 1986 30 SI WA VICTOR 1986-03-05 03:00:00 TS -17.2490 116.469 main 380 350 P_____P___P_P_ SH221986 -17.1574 116.435 95 2 -17.2923 116.557 40 95 935 439 -17.3889 116.449 4 106 -17.1574 116.435 TC 97 8 231
1986061S13124 1986 30 SI WA VICTOR 1986-03-05 06:00:00 TS -17.4968 116.153 100 930 bom main 350 324 O_____O___P_O_ jtwc_sh SH221986 -17.4000 116.100 100 3 -17.5000 116.300 40 100 930 6.00000 458 3 6 -17.6873 116.113 4 107 -17.4000 116.100 TC 105 8 229
1986061S13124 1986 30 SI WA VICTOR 1986-03-05 09:00:00 TS -17.7868 115.818 main 327 312 P_____P___P_P_ SH221986 -17.6574 115.785 102 3 -17.8651 115.908 40 100 932 445 -17.9671 115.796 4 107 -17.6574 115.785 TC 107 8 228
1986061S13124 1986 30 SI WA VICTOR 1986-03-05 12:00:00 TS -18.0500 115.500 100 935 bom main 316 305 O_____V___O_O_ jtwc_sh SH221986 -17.9000 115.500 105 3 -18.2000 115.500 40 100 935 6.00000 433 1 6 -18.2000 115.500 4 108 -17.9000 115.500 TC 110 938 7 232
1986061S13124 1986 30 SI WA VICTOR 1986-03-05 15:00:00 TS -18.2245 115.220 main 311 301 P_____P___P_P_ SH221986 -18.1149 115.242 105 3 -18.3340 115.186 40 95 940 421 -18.3340 115.208 4 105 -18.1149 115.242 TC 110 938 6 239
1986061S13124 1986 30 SI WA VICTOR 1986-03-05 18:00:00 TS -18.3556 114.960 90 945 bom main 303 303 O_____O___P_O_ jtwc_sh SH221986 -18.3000 115.000 105 3 -18.4000 114.900 40 90 945 5.50000 409 6 -18.4224 114.939 4 103 -18.3000 115.000 TC 110 938 6 243
1986061S13124 1986 30 SI WA VICTOR 1986-03-05 21:00:00 TS -18.4749 114.697 90 945 bom main 310 306 P_____O___P_P_ SH221986 -18.4500 114.742 102 3 -18.5000 114.600 40 90 945 5.50000 485 6 -18.4996 114.701 4 101 -18.4500 114.742 TC 107 5 241
1986061S13124 1986 30 SI WA VICTOR 1986-03-06 00:00:00 TS -18.6000 114.500 90 945 bom main 312 301 O_____O___O_O_ jtwc_sh SH221986 -18.6000 114.500 100 3 -18.6000 114.500 40 90 945 5.50000 394 6 -18.6000 114.500 4 99 -18.6000 114.500 TC 105 5 227
1986061S13124 1986 30 SI WA VICTOR 1986-03-06 03:00:00 TS -18.7831 114.344 90 945 bom main 306 294 P_____O___P_P_ SH221986 -18.7849 114.300 97 3 -18.8000 114.400 40 90 945 5.50000 463 11 6 -18.7627 114.375 4 98 -18.7849 114.300 TC 105 5 216
1986061S13124 1986 30 SI WA VICTOR 1986-03-06 06:00:00 TS -18.9886 114.195 90 945 bom main 294 290 O_____O___P_O_ jtwc_sh SH221986 -19.0000 114.100 95 2 -19.0000 114.300 40 90 945 5.00000 517 6 -18.9543 114.279 4 97 -19.0000 114.100 TC 105 5 217
1986061S13124 1986 30 SI WA VICTOR 1986-03-06 09:00:00 TS -19.2135 113.996 85 950 bom main 290 277 P_____O___P_P_ SH221986 -19.2425 113.857 92 2 -19.2000 114.100 40 85 950 5.00000 394 9 6 -19.1689 114.169 4 96 -19.2425 113.857 TC 100 6 219
1986061S13124 1986 30 SI WA VICTOR 1986-03-06 12:00:00 TS -19.4500 113.800 85 950 bom main 280 259 O_____V___O_O_ jtwc_sh SH221986 -19.5000 113.600 90 2 -19.4000 114.000 40 85 950 5.00000 431 6 -19.4000 114.000 4 96 -19.5000 113.600 TC 95 6 223
1986061S13124 1986 30 SI WA VICTOR 1986-03-06 15:00:00 TS -19.6612 113.553 main 249 249 P_____P___P_P_ SH221986 -19.7499 113.357 87 2 -19.5334 113.791 40 85 950 468 -19.6116 113.706 4 94 -19.7499 113.357 TC 90 6 228
1986061S13124 1986 30 SI WA VICTOR 1986-03-06 16:00:00 TS -19.7380 113.461 85 950 bom main 251 235 P_____O___P_P_ SH221986 -19.8333 113.274 86 2 -19.6000 113.700 40 85 950 5.00000 481 6 -19.6854 113.593 4 94 -19.8333 113.274 TC 88 7 228
1986061S13124 1986 30 SI WA VICTOR 1986-03-06 18:00:00 TS -19.9101 113.263 85 955 bom main 235 221 O_____O___P_O_ jtwc_sh SH221986 -20.0000 113.100 85 2 -19.8000 113.500 40 85 955 5.00000 361 3 6 -19.8405 113.352 4 93 -20.0000 113.100 TC 85 8 229
1986061S13124 1986 30 SI WA VICTOR 1986-03-06 21:00:00 TS -20.1960 112.893 85 955 bom main 221 215 P_____O___P_P_ SH221986 -20.2425 112.800 82 1 -20.2000 113.000 40 85 955 5.00000 269 6 -20.0991 112.972 4 91 -20.2425 112.800 TC 82 9 231
1986061S13124 1986 30 SI WA VICTOR 1986-03-07 00:00:00 TS -20.4500 112.550 85 955 bom main 221 220 O_____O___O_O_ jtwc_sh SH221986 -20.5000 112.500 80 1 -20.4000 112.600 40 85 955 5.00000 508 7 -20.4000 112.600 4 90 -20.5000 112.500 TC 80 8 226
1986061S13124 1986 30 SI WA VICTOR 1986-03-07 03:00:00 TS -20.7354 112.289 75 960 bom main 221 214 P_____O___P_P_ SH221986 -20.7924 112.242 77 1 -20.6000 112.400 40 75 960 4.50000 373 3 6 -20.7568 112.270 4 87 -20.7924 112.242 TC 77 8 218
1986061S13124 1986 30 SI WA VICTOR 1986-03-07 06:00:00 TS -21.0887 112.014 75 960 bom main 225 225 O_____O___P_O_ jtwc_sh SH221986 -21.1000 112.000 75 1 -21.0000 112.100 40 75 960 4.50000 388 3 6 -21.1549 111.955 4 84 -21.1000 112.000 TC 75 9 216
1986061S13124 1986 30 SI WA VICTOR 1986-03-07 09:00:00 TS -21.4651 111.716 70 965 bom main 231 225 P_____O___P_P_ SH221986 -21.3925 111.750 72 1 -21.5000 111.700 40 70 965 4.50000 355 2 6 -21.5756 111.663 4 81 -21.3925 111.750 TC 72 9 215
1986061S13124 1986 30 SI WA VICTOR 1986-03-07 12:00:00 TS -21.8500 111.450 70 965 bom main 233 233 O_____V___O_O_ jtwc_sh SH221986 -21.7000 111.500 70 1 -22.0000 111.400 40 70 965 4.50000 343 6 -22.0000 111.400 4 79 -21.7000 111.500 TC 70 9 210
1986061S13124 1986 30 SI WA VICTOR 1986-03-07 15:00:00 TS -22.2264 111.241 main 250 248 P_____P___P_P_ SH221986 -22.0349 111.257 67 1 -22.4526 111.261 40 66 968 331 -22.3833 111.186 4 73 -22.0349 111.257 TC 67 9 208
1986061S13124 1986 30 SI WA VICTOR 1986-03-07 16:00:00 TS -22.3544 111.168 65 970 bom main 247 247 P_____O___P_P_ SH221986 -22.1533 111.174 66 1 -22.6000 111.200 40 65 970 4.50000 328 6 -22.5111 111.122 4 72 -22.1533 111.174 TC 66 9 210
1986061S13124 1986 30 SI WA VICTOR 1986-03-07 18:00:00 TS -22.6173 111.000 60 974 bom main 266 266 O_____O___P_O_ jtwc_sh SH221986 -22.4000 111.000 65 1 -22.9000 111.000 30 60 974 4.00000 334 6 -22.7694 110.998 4 68 -22.4000 111.000 TC 65 9 211
1986061S13124 1986 30 SI WA VICTOR 1986-03-07 21:00:00 TS -23.0065 110.753 55 978 bom main 290 290 P_____O___P_P_ SH221986 -22.7775 110.700 60 0 -23.3000 110.800 30 55 978 4.00000 340 6 -23.1708 110.811 4 63 -22.7775 110.700 TC 60 9 210
1986061S13124 1986 30 SI WA VICTOR 1986-03-08 00:00:00 TS -23.4000 110.500 50 982 bom main 310 308 O_____O___O_O_ jtwc_sh SH221986 -23.2000 110.400 55 0 -23.6000 110.600 30 50 982 3.50000 259 6 -23.6000 110.600 2 58 -23.2000 110.400 TC 55 10 209
1986061S13124 1986 30 SI WA VICTOR 1986-03-08 03:00:00 TS -23.8886 110.215 main 329 327 P_____P___P_P_ SH221986 -23.6850 110.135 52 0 -24.1125 110.321 30 47 984 264 -24.0719 110.270 2 55 -23.6850 110.135 TC 52 11 207
1986061S13124 1986 30 SI WA VICTOR 1986-03-08 06:00:00 TS -24.4177 109.930 45 986 bom main 354 354 O_____O___P_O_ jtwc_sh SH221986 -24.2000 109.900 50 0 -24.7000 110.000 30 45 986 3.00000 269 6 -24.5709 109.920 2 52 -24.2000 109.900 TC 50 11 207
1986061S13124 1986 30 SI WA VICTOR 1986-03-08 09:00:00 TS -24.9086 109.657 main 377 377 P_____P___P_P_ SH221986 -24.6925 109.677 45 0 -25.1651 109.663 30 42 988 269 -25.0843 109.611 2 49 -24.6925 109.677 TC 45 11 204
1986061S13124 1986 30 SI WA VICTOR 1986-03-08 12:00:00 TS -25.4000 109.450 40 990 bom main 388 388 O_____V___O_O_ jtwc_sh SH221986 -25.2000 109.500 40 0 -25.6000 109.400 30 40 990 3.00000 269 6 -25.6000 109.400 2 46 -25.2000 109.500 TC 40 10 196
1986061S13124 1986 30 SI WA VICTOR 1986-03-08 15:00:00 TS -25.9070 109.337 main 400 398 P_____P___P_P_ SH221986 -25.7425 109.370 37 0 -26.0349 109.275 30 35 992 269 -26.1084 109.333 2 43 -25.7425 109.370 TC 37 10 187
1986061S13124 1986 30 SI WA VICTOR 1986-03-08 18:00:00 TS -26.4330 109.320 30 994 bom main 398 390 O_____O___P_O_ jtwc_sh SH221986 -26.3000 109.300 35 0 -26.5000 109.300 20 30 994 2.50000 269 6 -26.6097 109.386 2 40 -26.3000 109.300 TC 35 11 177
1986061S13124 1986 30 SI WA VICTOR 1986-03-08 21:00:00 TS -26.9763 109.412 main 395 390 P_____P___P_P_ SH221986 -26.8525 109.285 35 0 -27.0351 109.484 20 27 996 264 -27.1061 109.522 2 37 -26.8525 109.285 TC 35 11 169
1986061S13124 1986 30 SI WA VICTOR 1986-03-09 00:00:00 TS -27.5333 109.567 25 998 bom main 390 390 O_____O___O_O_ jtwc_sh SH221986 -27.4000 109.300 35 0 -27.6000 109.700 20 25 998 2.00000 259 6 -27.6000 109.700 2 34 -27.4000 109.300 TC 35 12 164
1986061S13124 1986 30 SI WA VICTOR 1986-03-09 03:00:00 NR -28.1549 109.793 main 405 405 ______P_______ SH221986 -1 -28.1549 109.793 20 25 1000 221 2 TC 12 170
1986061S13124 1986 30 SI WA VICTOR 1986-03-09 06:00:00 NR -28.7000 109.800 25 1002 bom main 432 ______O_______ -1 -28.7000 109.800 20 25 1002 2.00000 184 6 2 11 178

About IBTrACS Database

This database is a web-friendly format of International Best Track Archive for Climate Stewardship (IBTrACS), a global best track data archive curated by NOAA dating back to 1842.

Updated: 2021-12-06